Terminal Aerodrome Forecast
Issued by NWS Wichita, KS

Home | Current Version | Previous Version | Text Only | Print | Product List | Glossary On
Versions: 1 2 3 4 5 6 7 8 9 10 11 12 13
000
FTUS43 KICT 221900 AAA
TAFICT
TAF AMD
KICT 221950Z 2220/2318 19014G20KT P6SM VCSH SCT100
     FM230100 18012KT P6SM SCT100
     FM231500 19015G21KT P6SM SCT100=

USA.gov is the U.S. government's official web portal to all federal, state and local government web resources and services.